createdAt,value
2018-08-16T00:00:10.300Z,8.83
2018-08-16T00:02:38.603Z,10.05
2018-08-16T00:05:06.880Z,9.80
2018-08-16T00:07:35.057Z,9.93
2018-08-16T00:10:19.957Z,10.60
2018-08-16T00:12:49.155Z,10.00
2018-08-16T00:15:18.324Z,9.38
2018-08-16T00:17:54.219Z,9.90
2018-08-16T00:20:22.343Z,9.35
2018-08-16T00:22:50.398Z,10.40
2018-08-16T00:25:18.693Z,10.68
2018-08-16T00:27:46.747Z,11.18
2018-08-16T00:30:21.794Z,10.80
2018-08-16T00:32:54.169Z,9.83
2018-08-16T00:35:27.229Z,9.40
2018-08-16T00:37:59.991Z,8.60
2018-08-16T00:40:31.920Z,9.40
2018-08-16T00:43:04.068Z,9.73
2018-08-16T00:45:35.631Z,9.10
2018-08-16T00:48:03.754Z,11.20
2018-08-16T00:50:31.773Z,11.38
2018-08-16T00:52:59.868Z,11.50
2018-08-16T00:55:27.938Z,12.20
2018-08-16T00:57:56.099Z,11.80
2018-08-16T01:00:24.260Z,8.73
2018-08-16T01:02:57.413Z,7.40
2018-08-16T01:05:27.625Z,8.48
2018-08-16T01:07:55.648Z,7.55
2018-08-16T01:10:26.111Z,7.95
2018-08-16T01:12:56.632Z,8.70
2018-08-16T01:15:24.710Z,8.45
2018-08-16T01:17:52.761Z,8.60
2018-08-16T01:20:21.162Z,9.30
2018-08-16T01:22:49.228Z,9.65
2018-08-16T01:25:17.289Z,10.68
2018-08-16T01:27:45.587Z,10.82
2018-08-16T01:30:13.731Z,9.90
2018-08-16T01:32:42.073Z,8.60
2018-08-16T01:35:10.085Z,9.50
2018-08-16T01:37:38.892Z,9.63
2018-08-16T01:40:07.612Z,10.90
2018-08-16T01:42:36.622Z,11.10
2018-08-16T01:45:05.097Z,10.90
2018-08-16T01:47:33.116Z,11.80
2018-08-16T01:50:01.313Z,12.07
2018-08-16T01:52:29.356Z,11.57
2018-08-16T01:54:57.567Z,12.03
2018-08-16T01:57:25.595Z,12.23
2018-08-16T01:59:53.715Z,12.53
2018-08-16T02:02:21.864Z,12.43
2018-08-16T02:04:49.966Z,12.23
2018-08-16T02:07:18.030Z,10.90
2018-08-16T02:09:46.151Z,11.50
2018-08-16T02:12:14.184Z,11.63
2018-08-16T02:14:42.315Z,11.60
2018-08-16T02:17:10.532Z,11.90
2018-08-16T02:19:38.678Z,11.90
2018-08-16T02:22:06.998Z,12.63
2018-08-16T02:24:35.129Z,11.57
2018-08-16T02:27:03.424Z,11.90
2018-08-16T02:29:38.710Z,11.80
2018-08-16T02:32:06.713Z,12.47
2018-08-16T02:34:37.219Z,11.78
2018-08-16T02:37:05.701Z,11.08
2018-08-16T02:39:34.476Z,10.82
2018-08-16T02:42:02.726Z,13.08
2018-08-16T02:44:30.765Z,12.90
2018-08-16T02:47:01.631Z,13.50
2018-08-16T02:49:32.320Z,14.73
2018-08-16T02:52:03.316Z,16.23
2018-08-16T02:54:33.700Z,15.50
2018-08-16T02:57:06.702Z,15.55
2018-08-16T02:59:39.469Z,13.78
2018-08-16T03:02:10.956Z,14.40
2018-08-16T03:04:39.264Z,13.45
2018-08-16T03:07:07.937Z,12.87
2018-08-16T03:09:36.759Z,9.20
2018-08-16T03:12:11.043Z,9.40
2018-08-16T03:14:44.184Z,10.30
2018-08-16T03:17:22.468Z,10.25
2018-08-16T03:19:50.511Z,11.03
2018-08-16T03:22:18.811Z,12.28
2018-08-16T03:24:46.974Z,14.18
2018-08-16T03:27:15.136Z,13.25
2018-08-16T03:29:43.523Z,13.62
2018-08-16T03:32:11.516Z,14.80
2018-08-16T03:34:39.544Z,15.65
2018-08-16T03:37:07.751Z,14.60
2018-08-16T03:39:35.891Z,14.23
2018-08-16T03:42:04.105Z,14.00
2018-08-16T03:44:32.166Z,12.20
2018-08-16T03:47:00.225Z,11.60
2018-08-16T03:49:28.299Z,14.00
2018-08-16T03:51:56.516Z,14.20
2018-08-16T03:54:24.656Z,15.32
2018-08-16T03:56:52.713Z,15.32
2018-08-16T03:59:20.799Z,14.80
2018-08-16T04:01:48.873Z,12.55
2018-08-16T04:04:16.961Z,9.93
2018-08-16T04:06:45.112Z,11.70
2018-08-16T04:09:13.202Z,9.37
2018-08-16T04:11:41.355Z,12.07
2018-08-16T04:14:09.450Z,11.90
2018-08-16T04:16:37.504Z,13.72
2018-08-16T04:19:05.695Z,14.70
2018-08-16T04:21:33.886Z,15.50
2018-08-16T04:24:01.921Z,16.12
2018-08-16T04:26:30.016Z,15.53
2018-08-16T04:28:58.196Z,14.95
2018-08-16T04:31:26.376Z,15.40
2018-08-16T04:33:54.523Z,14.80
2018-08-16T04:36:22.764Z,14.23
2018-08-16T04:38:50.872Z,14.63
2018-08-16T04:41:18.982Z,13.62
2018-08-16T04:43:47.037Z,13.78
2018-08-16T04:46:15.228Z,12.40
2018-08-16T04:48:43.376Z,12.70
2018-08-16T04:51:11.579Z,12.58
2018-08-16T04:53:39.623Z,13.55
2018-08-16T04:56:07.800Z,12.75
2018-08-16T04:58:35.899Z,12.23
2018-08-16T05:01:04.039Z,10.70
2018-08-16T05:03:32.141Z,12.65
2018-08-16T05:06:00.394Z,11.22
2018-08-16T05:08:28.509Z,11.38
2018-08-16T05:10:56.665Z,10.10
2018-08-16T05:13:24.764Z,11.00
2018-08-16T05:15:52.788Z,10.63
2018-08-16T05:18:20.883Z,9.60
2018-08-16T05:20:48.945Z,10.82
2018-08-16T05:23:17.027Z,10.30
2018-08-16T05:25:45.179Z,11.35
2018-08-16T05:28:13.392Z,11.25
2018-08-16T05:30:41.451Z,10.80
2018-08-16T05:33:09.711Z,10.53
2018-08-16T05:35:38.012Z,10.20
2018-08-16T05:38:06.174Z,11.20
2018-08-16T05:40:34.259Z,10.20
2018-08-16T05:43:02.483Z,9.85
2018-08-16T05:45:30.517Z,10.20
2018-08-16T05:47:58.792Z,9.97
2018-08-16T05:50:26.940Z,10.13
2018-08-16T05:52:55.045Z,10.70
2018-08-16T05:55:23.092Z,10.40
2018-08-16T05:57:51.186Z,10.00
2018-08-16T06:00:19.448Z,10.07
2018-08-16T06:02:47.531Z,10.72
2018-08-16T06:05:15.559Z,10.00
2018-08-16T06:07:43.681Z,8.68
2018-08-16T06:10:11.951Z,8.80
2018-08-16T06:12:40.125Z,8.80
2018-08-16T06:15:09.448Z,9.75
2018-08-16T06:17:37.787Z,8.30
2018-08-16T06:20:08.270Z,7.60
2018-08-16T06:22:36.707Z,7.70
2018-08-16T06:25:06.331Z,7.95
2018-08-16T06:27:34.381Z,8.67
2018-08-16T06:30:02.581Z,8.20
2018-08-16T06:32:30.623Z,8.90
2018-08-16T06:34:58.836Z,8.50
2018-08-16T06:37:27.119Z,8.75
2018-08-16T06:39:55.152Z,8.70
2018-08-16T06:42:23.249Z,8.78
2018-08-16T06:44:51.409Z,9.25
2018-08-16T06:47:19.508Z,8.13
2018-08-16T06:49:47.560Z,8.58
2018-08-16T06:52:15.759Z,9.45
2018-08-16T06:54:43.824Z,9.20
2018-08-16T06:57:12.084Z,9.03
2018-08-16T06:59:40.173Z,9.10
2018-08-16T07:02:08.312Z,8.70
2018-08-16T07:04:36.539Z,8.53
2018-08-16T07:07:04.764Z,8.50
2018-08-16T07:09:32.960Z,8.70
2018-08-16T07:12:01.215Z,7.58
2018-08-16T07:14:29.407Z,8.50
2018-08-16T07:16:57.639Z,7.60
2018-08-16T07:19:25.706Z,7.53
2018-08-16T07:21:53.746Z,7.80
2018-08-16T07:24:21.893Z,8.10
2018-08-16T07:26:50.085Z,7.67
2018-08-16T07:29:18.180Z,7.67
2018-08-16T07:31:46.230Z,7.20
2018-08-16T07:34:14.338Z,7.60
2018-08-16T07:36:42.608Z,6.78
2018-08-16T07:39:11.577Z,7.13
2018-08-16T07:41:39.775Z,6.92
2018-08-16T07:44:08.173Z,6.67
2018-08-16T07:46:36.240Z,7.00
2018-08-16T07:49:04.272Z,6.30
2018-08-16T07:51:32.577Z,6.35
2018-08-16T07:54:00.780Z,5.87
2018-08-16T07:56:28.937Z,5.33
2018-08-16T07:58:56.984Z,5.80
2018-08-16T08:01:25.078Z,5.17
2018-08-16T08:03:53.245Z,5.30
2018-08-16T08:06:21.537Z,5.70
2018-08-16T08:08:49.652Z,4.70
2018-08-16T08:11:17.878Z,4.20
2018-08-16T08:13:46.065Z,4.83
2018-08-16T08:16:14.211Z,5.47
2018-08-16T08:18:42.316Z,5.00
2018-08-16T08:21:10.887Z,5.30
2018-08-16T08:23:38.959Z,5.50
2018-08-16T08:26:07.403Z,5.55
2018-08-16T08:28:35.521Z,5.10
2018-08-16T08:31:03.684Z,6.20
2018-08-16T08:33:31.747Z,5.50
2018-08-16T08:36:11.925Z,6.40
2018-08-16T08:38:40.027Z,5.75
2018-08-16T08:41:08.287Z,5.62
2018-08-16T08:43:47.908Z,5.93
2018-08-16T08:46:16.105Z,5.35
2018-08-16T08:48:44.150Z,6.20
2018-08-16T08:51:12.259Z,7.07
2018-08-16T08:57:40.344Z,5.60
2018-08-16T09:00:08.660Z,8.23
2018-08-16T09:02:36.796Z,6.45
2018-08-16T09:05:05.992Z,7.53
2018-08-16T09:07:34.071Z,6.53
2018-08-16T09:11:16.979Z,5.10
2018-08-16T09:13:58.505Z,5.23
2018-08-16T09:16:28.341Z,4.87
2018-08-16T09:18:56.896Z,4.60
2018-08-16T09:21:25.329Z,5.07
2018-08-16T09:23:53.643Z,4.90
2018-08-16T09:26:27.624Z,5.22
2018-08-16T09:28:55.805Z,4.70
2018-08-16T09:31:35.171Z,5.70
2018-08-16T09:34:16.252Z,4.70
2018-08-16T09:36:44.419Z,4.50
2018-08-16T09:39:12.601Z,4.60
2018-08-16T09:41:40.988Z,4.40
2018-08-16T09:44:09.148Z,4.33
2018-08-16T09:46:50.464Z,4.45
2018-08-16T09:49:18.505Z,4.25
2018-08-16T09:51:47.232Z,4.55
2018-08-16T09:54:15.320Z,4.87
2018-08-16T09:56:44.228Z,5.10
2018-08-16T09:59:12.621Z,5.10
2018-08-16T10:01:40.942Z,4.80
2018-08-16T10:04:09.439Z,4.78
2018-08-16T10:06:38.765Z,5.20
2018-08-16T10:09:09.066Z,4.30
2018-08-16T10:11:37.221Z,4.67
2018-08-16T10:14:05.480Z,5.05
2018-08-16T10:16:34.176Z,4.00
2018-08-16T10:19:02.540Z,4.50
2018-08-16T10:21:30.748Z,4.60
2018-08-16T10:23:59.101Z,4.22
2018-08-16T10:26:27.188Z,4.00
2018-08-16T10:28:55.253Z,4.62
2018-08-16T10:31:23.542Z,4.45
2018-08-16T10:33:51.811Z,4.42
2018-08-16T10:36:19.972Z,4.70
2018-08-16T10:38:48.076Z,4.10
2018-08-16T10:41:16.118Z,4.90
2018-08-16T10:43:44.333Z,4.55
2018-08-16T10:46:12.540Z,3.50
2018-08-16T10:48:40.672Z,4.42
2018-08-16T10:51:08.864Z,4.40
2018-08-16T10:53:37.228Z,4.10
2018-08-16T10:56:05.770Z,4.30
2018-08-16T10:58:33.903Z,4.50
2018-08-16T11:01:02.036Z,4.00
2018-08-16T15:28:56.761Z,3.60
2018-08-16T15:31:25.062Z,3.20
2018-08-16T15:33:53.268Z,2.90
2018-08-16T15:36:21.363Z,3.37
2018-08-16T15:38:49.406Z,3.37
2018-08-16T15:41:17.686Z,3.20
2018-08-16T15:43:45.752Z,3.00
2018-08-16T15:46:13.799Z,2.70
2018-08-16T15:48:44.126Z,3.10
2018-08-16T15:51:12.435Z,3.20
2018-08-16T15:53:43.156Z,2.90
2018-08-16T15:56:13.921Z,2.80
2018-08-16T15:58:44.825Z,2.80
2018-08-16T16:01:14.162Z,2.70
2018-08-16T16:03:42.576Z,2.63
2018-08-16T16:06:10.780Z,2.67
2018-08-16T16:08:38.976Z,2.47
2018-08-16T16:11:07.168Z,2.60
2018-08-16T16:13:35.608Z,2.40
2018-08-16T16:16:03.829Z,2.53
2018-08-16T16:18:32.112Z,2.80
2018-08-16T16:21:00.379Z,3.00
2018-08-16T16:23:28.825Z,2.60
2018-08-16T16:25:56.928Z,2.70
2018-08-16T16:28:25.026Z,2.70
2018-08-16T16:30:53.223Z,2.73
2018-08-16T16:33:21.323Z,2.83
2018-08-16T16:35:49.527Z,3.37
2018-08-16T16:38:17.936Z,2.97
2018-08-16T16:40:46.147Z,3.10
2018-08-16T16:43:14.660Z,3.20
2018-08-16T16:45:42.949Z,3.00
2018-08-16T16:48:11.000Z,2.97
2018-08-16T16:50:39.032Z,2.90
2018-08-16T16:53:07.215Z,2.73
2018-08-16T16:55:35.240Z,2.50
2018-08-16T16:58:03.418Z,2.90
2018-08-16T17:00:31.453Z,3.17
2018-08-16T17:02:59.664Z,2.93
2018-08-16T17:05:27.813Z,3.00
2018-08-16T17:07:55.926Z,3.40
2018-08-16T17:10:24.087Z,3.90
2018-08-16T17:12:52.477Z,3.47
2018-08-16T17:15:20.736Z,3.10
2018-08-16T17:17:48.924Z,2.83
2018-08-16T17:20:17.084Z,3.20
2018-08-16T17:22:45.164Z,2.90
2018-08-16T17:25:13.210Z,3.27
2018-08-16T17:27:41.315Z,4.10
2018-08-16T17:30:09.871Z,3.30
2018-08-16T17:32:37.978Z,3.50
2018-08-16T17:35:06.164Z,3.23
2018-08-16T17:37:34.206Z,3.43
2018-08-16T17:40:02.516Z,2.90
2018-08-16T17:42:30.661Z,2.83
2018-08-16T17:44:58.759Z,2.60
2018-08-16T17:47:26.912Z,3.27
2018-08-16T17:49:55.005Z,3.17
2018-08-16T17:52:23.188Z,3.10
2018-08-16T17:54:51.227Z,3.50
2018-08-16T17:57:19.320Z,3.40
2018-08-16T17:59:47.384Z,2.87
2018-08-16T18:02:15.476Z,3.03
2018-08-16T18:04:43.524Z,2.60
2018-08-16T18:07:11.716Z,3.47
2018-08-16T18:09:39.868Z,3.43
2018-08-16T18:12:07.960Z,3.63
